Time;durP1;ratioP1;P1;durP2;ratioP2;P2;SDS_P1;SDS_P2;PMS_P1;PMS_P2;Temp;Humidity;BMP_temperature;BMP_pressure;BME280_temperature;BME280_humidity;BME280_pressure;Samples;Min_cycle;Max_cycle;Signal;HPM_P1;HPM_P2
2021/04/03 00:02:22;;;;;;;17.70;5.80;;;7.10;99.90;;;;;;5050442;28;20473;-54
2021/04/03 00:04:47;;;;;;;14.98;6.13;;;7.10;99.90;;;;;;5051831;28;20086;-54
2021/04/03 00:07:14;;;;;;;22.25;6.32;;;7.10;99.90;;;;;;5049151;28;20118;-54
2021/04/03 00:09:39;;;;;;;18.05;6.55;;;7.10;99.90;;;;;;5050671;28;20028;-52
2021/04/03 00:12:07;;;;;;;20.75;6.68;;;7.10;99.90;;;;;;5050965;28;20029;-54
2021/04/03 00:14:33;;;;;;;21.05;6.93;;;7.10;99.90;;;;;;5051330;28;20067;-53
2021/04/03 00:16:58;;;;;;;18.17;6.47;;;7.10;99.90;;;;;;5051086;28;20102;-53
2021/04/03 00:19:24;;;;;;;13.70;5.70;;;7.10;99.90;;;;;;5046424;28;20031;-52
2021/04/03 00:21:49;;;;;;;20.05;6.13;;;7.10;99.90;;;;;;5049230;28;20029;-52
2021/04/03 00:24:15;;;;;;;17.27;5.45;;;7.10;99.90;;;;;;5049163;28;20562;-52
2021/04/03 00:26:40;;;;;;;21.38;6.25;;;7.10;99.90;;;;;;5050434;28;20029;-55
2021/04/03 00:29:06;;;;;;;21.38;5.90;;;7.10;99.90;;;;;;5050230;28;20029;-55
2021/04/03 00:31:31;;;;;;;23.65;6.13;;;7.10;99.90;;;;;;5050804;28;20104;-56
2021/04/03 00:33:58;;;;;;;23.23;5.90;;;7.10;99.90;;;;;;5051286;28;20107;-53
2021/04/03 00:36:24;;;;;;;21.58;7.20;;;7.10;99.90;;;;;;5050838;28;20033;-57
2021/04/03 00:38:49;;;;;;;17.52;6.32;;;7.10;99.90;;;;;;5051568;28;20421;-56
2021/04/03 00:41:15;;;;;;;21.65;6.95;;;7.10;99.90;;;;;;5046906;28;20517;-52
2021/04/03 00:43:40;;;;;;;33.03;7.60;;;7.10;99.90;;;;;;5051074;28;20059;-52
2021/04/03 00:46:06;;;;;;;23.70;8.45;;;7.10;99.90;;;;;;5050619;28;20032;-53
2021/04/03 00:48:31;;;;;;;17.83;6.32;;;7.20;99.90;;;;;;5051453;28;20040;-54
2021/04/03 00:50:57;;;;;;;18.00;6.05;;;7.20;99.90;;;;;;5049872;28;20025;-51
2021/04/03 00:53:25;;;;;;;16.23;6.07;;;7.20;99.90;;;;;;5048161;28;20025;-52
2021/04/03 00:55:51;;;;;;;15.70;6.45;;;7.20;99.90;;;;;;5047245;28;20117;-52
2021/04/03 00:58:17;;;;;;;16.77;6.07;;;7.20;99.90;;;;;;5048516;28;20449;-54
2021/04/03 01:00:43;;;;;;;25.00;6.60;;;7.20;99.90;;;;;;5050081;28;20425;-52
2021/04/03 01:03:09;;;;;;;20.95;6.40;;;7.10;99.90;;;;;;5050599;28;20130;-52
2021/04/03 01:05:35;;;;;;;25.00;7.10;;;7.20;99.90;;;;;;5048548;28;20487;-53
2021/04/03 01:08:01;;;;;;;24.65;7.25;;;7.20;99.90;;;;;;5046699;28;20143;-53
2021/04/03 01:10:37;;;;;;;29.75;5.90;;;7.10;99.90;;;;;;5028791;28;20039;-54
2021/04/03 01:13:08;;;;;;;25.20;7.00;;;7.10;99.90;;;;;;5047111;28;20102;-52
2021/04/03 01:15:50;;;;;;;30.20;6.93;;;7.10;99.90;;;;;;5050568;28;20048;-53
2021/04/03 01:18:34;;;;;;;29.20;8.18;;;7.10;99.90;;;;;;5049886;28;20099;-53
2021/04/03 01:21:25;;;;;;;19.40;7.32;;;7.10;99.90;;;;;;5044762;28;20068;-53
2021/04/03 01:24:02;;;;;;;21.83;6.90;;;7.00;99.90;;;;;;4998870;28;20031;-53
2021/04/03 01:26:40;;;;;;;26.90;6.28;;;7.00;99.90;;;;;;5048043;28;20116;-52
2021/04/03 01:29:31;;;;;;;26.05;6.82;;;7.00;99.90;;;;;;5048593;28;20579;-52
2021/04/03 01:32:00;;;;;;;26.90;7.85;;;6.90;99.90;;;;;;5046362;28;20052;-57
2021/04/03 01:34:27;;;;;;;31.48;6.78;;;6.80;99.90;;;;;;5046845;28;20692;-53
2021/04/03 01:37:00;;;;;;;29.63;6.32;;;6.70;99.90;;;;;;5049122;28;20045;-54
2021/04/03 01:39:28;;;;;;;37.97;7.38;;;6.60;99.90;;;;;;5049933;28;20035;-55
2021/04/03 01:42:00;;;;;;;21.70;6.07;;;6.50;99.90;;;;;;5050101;28;20272;-55
2021/04/03 01:44:50;;;;;;;28.15;5.63;;;6.40;99.90;;;;;;5050509;28;20029;-53
2021/04/03 01:47:20;;;;;;;27.52;6.70;;;6.30;99.90;;;;;;5047933;28;20098;-53
2021/04/03 01:49:48;;;;;;;25.92;6.95;;;6.30;99.90;;;;;;5049227;28;20024;-53
2021/04/03 01:52:17;;;;;;;35.08;7.95;;;6.30;99.90;;;;;;5048980;28;20045;-55
2021/04/03 01:54:44;;;;;;;30.73;7.88;;;6.20;99.90;;;;;;5046716;28;20029;-53
2021/04/03 01:57:10;;;;;;;29.45;6.40;;;6.20;99.90;;;;;;5049271;28;20079;-53
2021/04/03 01:59:37;;;;;;;29.45;6.88;;;6.20;99.90;;;;;;5046776;28;20389;-53
2021/04/03 02:02:03;;;;;;;29.23;6.70;;;6.20;99.90;;;;;;5049326;28;20544;-53
2021/04/03 02:04:29;;;;;;;27.90;6.03;;;6.20;99.90;;;;;;5049008;28;20540;-53
2021/04/03 02:06:55;;;;;;;32.28;8.57;;;6.20;99.90;;;;;;5049572;28;20061;-54
2021/04/03 02:09:22;;;;;;;27.77;7.57;;;6.20;99.90;;;;;;5049814;28;20187;-55
2021/04/03 02:11:49;;;;;;;26.45;5.88;;;6.20;99.90;;;;;;5049615;28;20036;-54
2021/04/03 02:14:16;;;;;;;24.63;6.28;;;6.20;99.90;;;;;;5049463;28;20017;-53
2021/04/03 02:16:43;;;;;;;25.42;6.15;;;6.10;99.90;;;;;;5030785;28;20422;-55
2021/04/03 02:19:10;;;;;;;30.60;6.70;;;6.20;99.90;;;;;;5049150;28;20120;-54
2021/04/03 02:21:39;;;;;;;33.22;5.95;;;6.10;99.90;;;;;;5048576;28;20021;-53
2021/04/03 02:24:05;;;;;;;34.60;7.93;;;6.10;99.90;;;;;;5048368;28;20025;-54
2021/04/03 02:26:34;;;;;;;29.83;6.07;;;6.10;99.90;;;;;;5045474;28;20045;-57
2021/04/03 02:29:00;;;;;;;27.88;7.80;;;6.10;99.90;;;;;;5046371;28;20025;-53
2021/04/03 02:31:28;;;;;;;39.00;6.65;;;6.10;99.90;;;;;;5047711;28;20025;-53
2021/04/03 02:33:53;;;;;;;32.22;8.05;;;6.10;99.90;;;;;;5048991;28;20453;-53
2021/04/03 02:36:19;;;;;;;20.38;4.72;;;6.10;99.90;;;;;;5048548;28;20056;-54
2021/04/03 02:38:47;;;;;;;25.55;4.45;;;6.20;99.90;;;;;;5048604;28;20091;-56
2021/04/03 02:41:16;;;;;;;23.27;3.47;;;6.20;99.90;;;;;;5048268;28;20033;-53
2021/04/03 02:43:49;;;;;;;13.32;2.50;;;6.20;99.90;;;;;;5044124;28;20033;-55
2021/04/03 02:46:39;;;;;;;16.90;3.20;;;6.20;99.90;;;;;;5048230;28;20028;-53
2021/04/03 02:49:11;;;;;;;19.50;2.65;;;6.30;99.90;;;;;;5050175;28;20033;-55
2021/04/03 02:51:45;;;;;;;21.58;3.00;;;6.20;99.90;;;;;;5053710;28;20035;-54
2021/04/03 02:54:13;;;;;;;14.20;2.40;;;6.20;99.90;;;;;;5053296;28;20384;-55
2021/04/03 02:56:41;;;;;;;25.08;3.10;;;6.20;99.90;;;;;;5052527;28;20029;-56
2021/04/03 02:59:15;;;;;;;21.33;2.97;;;6.20;99.90;;;;;;5052110;28;20033;-54
2021/04/03 03:01:41;;;;;;;31.10;3.75;;;6.20;99.90;;;;;;5054087;28;20051;-54
2021/04/03 03:04:09;;;;;;;23.40;3.45;;;6.20;99.90;;;;;;5053632;28;20029;-53
2021/04/03 03:06:36;;;;;;;23.08;3.47;;;6.20;99.90;;;;;;5052344;28;20552;-54
2021/04/03 03:09:04;;;;;;;27.88;3.80;;;6.20;99.90;;;;;;5046447;28;20398;-52
2021/04/03 03:11:30;;;;;;;26.42;4.53;;;6.20;99.90;;;;;;5052409;28;20101;-55
2021/04/03 03:13:57;;;;;;;22.85;4.10;;;6.30;99.90;;;;;;5047935;28;20071;-53
2021/04/03 03:16:24;;;;;;;21.27;4.22;;;6.20;99.90;;;;;;5051939;28;20040;-53
2021/04/03 03:18:50;;;;;;;22.38;3.58;;;6.20;99.90;;;;;;5051436;28;20037;-53
2021/04/03 03:21:16;;;;;;;21.70;3.65;;;6.30;99.90;;;;;;5049004;28;20036;-55
2021/04/03 03:23:42;;;;;;;27.40;4.03;;;6.20;99.90;;;;;;5051970;28;20033;-54
2021/04/03 03:26:08;;;;;;;17.08;3.03;;;6.20;99.90;;;;;;5051369;28;20441;-53
2021/04/03 03:28:33;;;;;;;20.67;3.53;;;6.20;99.90;;;;;;5047496;28;20029;-52
2021/04/03 03:31:00;;;;;;;31.00;4.70;;;6.30;99.90;;;;;;5051985;28;20037;-55
2021/04/03 03:33:25;;;;;;;26.77;4.78;;;6.30;99.90;;;;;;5052341;28;20827;-52
2021/04/03 03:35:51;;;;;;;19.98;4.13;;;6.30;99.90;;;;;;5051689;28;20052;-52
2021/04/03 03:38:17;;;;;;;17.73;3.65;;;6.30;99.90;;;;;;5051567;28;20120;-53
2021/04/03 03:40:46;;;;;;;21.48;4.32;;;6.30;99.90;;;;;;5044184;28;20105;-55
2021/04/03 03:43:16;;;;;;;19.20;3.53;;;6.30;99.90;;;;;;5051280;28;20032;-56
2021/04/03 03:45:43;;;;;;;25.40;4.28;;;6.40;99.90;;;;;;5045933;28;20020;-55
2021/04/03 03:48:09;;;;;;;21.38;4.32;;;6.40;99.90;;;;;;5049709;28;20111;-53
2021/04/03 03:50:35;;;;;;;15.00;3.65;;;6.40;99.90;;;;;;5051546;28;20103;-51
2021/04/03 03:53:00;;;;;;;35.10;5.10;;;6.50;99.90;;;;;;5052350;28;20017;-57
2021/04/03 03:55:26;;;;;;;24.90;3.40;;;6.40;99.90;;;;;;5049118;28;20063;-53
2021/04/03 03:57:51;;;;;;;26.15;4.20;;;6.40;99.90;;;;;;5050293;28;20033;-53
2021/04/03 04:00:17;;;;;;;20.52;3.97;;;6.40;99.90;;;;;;5050948;28;20045;-55
2021/04/03 04:02:43;;;;;;;21.15;4.97;;;6.40;99.90;;;;;;5051310;28;20039;-53
2021/04/03 04:05:09;;;;;;;26.15;4.95;;;6.40;99.90;;;;;;5051425;28;20029;-53
2021/04/03 04:07:35;;;;;;;16.90;3.22;;;6.40;99.90;;;;;;5048803;28;20033;-52
2021/04/03 04:10:03;;;;;;;24.23;4.78;;;6.50;99.90;;;;;;5048912;28;20067;-52
2021/04/03 04:12:29;;;;;;;20.77;3.53;;;6.50;99.90;;;;;;5051483;28;20420;-53
2021/04/03 04:14:55;;;;;;;20.15;3.58;;;6.50;99.90;;;;;;5051419;28;20083;-53
2021/04/03 04:17:20;;;;;;;25.45;4.28;;;6.40;99.90;;;;;;5051060;28;20021;-53
2021/04/03 04:19:46;;;;;;;32.90;3.70;;;6.40;99.90;;;;;;5050203;28;20036;-53
2021/04/03 04:22:12;;;;;;;22.85;3.30;;;6.40;99.90;;;;;;5050901;28;20039;-53
2021/04/03 04:24:37;;;;;;;30.75;5.20;;;6.40;99.90;;;;;;5050647;28;20068;-55
2021/04/03 04:27:03;;;;;;;14.38;2.63;;;6.40;99.90;;;;;;5050869;28;20472;-55
2021/04/03 04:29:30;;;;;;;12.10;2.63;;;6.40;99.90;;;;;;5050785;28;20078;-53
2021/04/03 04:31:55;;;;;;;22.50;3.13;;;6.30;99.90;;;;;;5051267;28;20535;-56
2021/04/03 04:34:21;;;;;;;19.25;4.65;;;6.30;99.90;;;;;;5051393;28;20033;-53
2021/04/03 04:36:46;;;;;;;17.83;3.58;;;6.40;99.90;;;;;;5049976;28;20033;-53
2021/04/03 04:39:12;;;;;;;35.70;4.90;;;6.40;99.90;;;;;;5044062;28;20064;-57
2021/04/03 04:41:38;;;;;;;11.68;3.10;;;6.40;99.90;;;;;;5050466;28;20033;-54
2021/04/03 04:44:04;;;;;;;17.95;3.05;;;6.50;99.90;;;;;;5050540;28;20037;-54
2021/04/03 04:46:29;;;;;;;17.52;3.03;;;6.50;99.90;;;;;;5050436;28;20044;-53
2021/04/03 04:48:55;;;;;;;18.92;3.42;;;6.50;99.90;;;;;;5050894;28;20032;-53
2021/04/03 04:51:21;;;;;;;21.27;3.85;;;6.40;99.90;;;;;;5048424;28;20074;-53
2021/04/03 04:53:46;;;;;;;27.92;3.28;;;6.40;99.90;;;;;;5049591;28;20093;-53
2021/04/03 04:56:12;;;;;;;13.65;4.05;;;6.50;99.90;;;;;;5049156;28;20037;-54
2021/04/03 04:58:37;;;;;;;20.20;3.85;;;6.50;99.90;;;;;;5045496;28;20582;-52
2021/04/03 05:01:03;;;;;;;26.20;4.18;;;6.50;99.90;;;;;;5049905;28;20513;-54
2021/04/03 05:03:29;;;;;;;18.45;4.28;;;6.50;99.90;;;;;;5050922;28;20082;-54
2021/04/03 05:05:54;;;;;;;20.13;3.70;;;6.40;99.90;;;;;;5028500;28;20028;-54
2021/04/03 05:08:20;;;;;;;23.92;4.32;;;6.40;99.90;;;;;;5049103;28;20033;-54
2021/04/03 05:10:45;;;;;;;28.92;3.88;;;6.40;99.90;;;;;;5050018;28;20021;-53
2021/04/03 05:13:11;;;;;;;30.45;3.85;;;6.40;99.90;;;;;;5049102;28;20500;-56
2021/04/03 05:15:36;;;;;;;28.00;3.80;;;6.50;99.90;;;;;;5050181;28;20367;-56
2021/04/03 05:18:03;;;;;;;22.92;3.83;;;6.40;99.90;;;;;;5045674;28;20065;-56
2021/04/03 05:20:28;;;;;;;32.60;4.35;;;6.50;99.90;;;;;;5048784;28;20030;-55
2021/04/03 05:22:54;;;;;;;22.17;4.57;;;6.50;99.90;;;;;;5049903;28;20037;-53
2021/04/03 05:25:19;;;;;;;26.25;3.80;;;6.60;99.90;;;;;;5039079;28;20021;-54
2021/04/03 05:27:45;;;;;;;30.85;4.90;;;6.50;99.90;;;;;;5048351;28;20033;-54
2021/04/03 05:30:12;;;;;;;23.95;4.47;;;6.50;99.90;;;;;;5049858;28;20702;-54
2021/04/03 05:32:37;;;;;;;21.33;3.65;;;6.50;99.90;;;;;;5047700;28;20021;-54
2021/04/03 05:35:04;;;;;;;22.38;4.40;;;6.50;99.90;;;;;;5042086;28;20049;-53
2021/04/03 05:37:29;;;;;;;24.25;3.92;;;6.50;99.90;;;;;;5050008;28;20492;-54
2021/04/03 05:39:55;;;;;;;27.38;4.03;;;6.50;99.90;;;;;;5049601;28;20063;-53
2021/04/03 05:42:20;;;;;;;35.63;4.13;;;6.50;99.90;;;;;;5050174;28;20371;-53
2021/04/03 05:44:48;;;;;;;21.60;3.20;;;6.50;99.90;;;;;;5048167;28;20044;-56
2021/04/03 05:47:14;;;;;;;24.45;4.60;;;6.50;99.90;;;;;;5049275;28;20044;-54
2021/04/03 05:49:43;;;;;;;21.70;3.67;;;6.50;99.90;;;;;;5045026;28;20107;-55
2021/04/03 05:52:09;;;;;;;26.80;3.58;;;6.50;99.90;;;;;;5048408;28;20036;-53
2021/04/03 05:54:36;;;;;;;22.80;3.65;;;6.60;99.90;;;;;;5049052;28;20375;-55
2021/04/03 05:57:03;;;;;;;32.92;3.80;;;6.60;99.90;;;;;;5048192;28;20043;-53
2021/04/03 05:59:29;;;;;;;27.88;4.00;;;6.70;99.90;;;;;;5048152;28;20424;-53
2021/04/03 06:01:54;;;;;;;29.55;4.18;;;6.70;99.90;;;;;;5046506;28;20028;-53
2021/04/03 06:04:20;;;;;;;32.92;4.13;;;6.60;99.90;;;;;;5047870;28;20140;-53
2021/04/03 06:06:45;;;;;;;32.30;4.53;;;6.50;99.90;;;;;;5048723;28;20044;-52
2021/04/03 06:09:11;;;;;;;30.75;5.43;;;6.50;99.90;;;;;;5049143;28;20021;-52
2021/04/03 06:12:03;;;;;;;25.58;3.33;;;6.50;99.90;;;;;;5048752;28;20061;-53
2021/04/03 06:14:35;;;;;;;27.20;5.15;;;6.50;99.90;;;;;;5043413;28;20398;-53
2021/04/03 06:17:01;;;;;;;23.42;3.75;;;6.40;99.90;;;;;;5049190;28;20033;-52
2021/04/03 06:19:27;;;;;;;26.02;4.93;;;6.40;99.90;;;;;;5048735;28;20394;-52
2021/04/03 06:21:52;;;;;;;21.52;4.65;;;6.40;99.90;;;;;;5048710;28;20040;-56
2021/04/03 06:24:38;;;;;;;25.85;4.78;;;6.50;99.90;;;;;;5048559;28;20568;-52
2021/04/03 06:27:11;;;;;;;25.65;3.88;;;6.50;99.90;;;;;;5048600;28;20029;-53
2021/04/03 06:29:46;;;;;;;26.95;5.40;;;6.50;99.90;;;;;;5045094;28;20021;-55
2021/04/03 06:32:35;;;;;;;35.13;4.40;;;6.60;99.90;;;;;;5045859;28;20433;-55
2021/04/03 06:35:00;;;;;;;31.35;5.70;;;6.70;99.90;;;;;;5045578;28;20036;-55
2021/04/03 06:37:29;;;;;;;28.70;5.32;;;6.80;99.90;;;;;;5044926;28;20026;-54
2021/04/03 06:40:00;;;;;;;24.05;5.32;;;6.80;99.90;;;;;;5049040;28;20451;-52
2021/04/03 06:42:51;;;;;;;20.92;4.50;;;6.80;99.90;;;;;;5049087;28;20112;-52
2021/04/03 06:45:26;;;;;;;31.05;5.13;;;6.90;99.90;;;;;;5047772;28;20025;-52
2021/04/03 06:48:04;;;;;;;18.33;4.18;;;6.90;99.90;;;;;;5049247;28;20029;-53
2021/04/03 06:50:36;;;;;;;28.48;4.53;;;7.00;99.90;;;;;;5042946;28;20478;-56
2021/04/03 06:53:10;;;;;;;17.15;4.03;;;6.90;99.90;;;;;;5071938;22;20044;-57
2021/04/03 06:55:36;;;;;;;25.45;5.70;;;6.80;99.90;;;;;;5048284;28;20048;-55
2021/04/03 06:58:04;;;;;;;28.77;4.20;;;6.90;99.90;;;;;;5047606;28;20033;-53
2021/04/03 07:00:30;;;;;;;29.85;4.57;;;6.80;99.90;;;;;;5049312;28;20017;-55
2021/04/03 07:02:58;;;;;;;23.08;5.40;;;6.80;99.90;;;;;;5044829;28;20025;-55
2021/04/03 07:05:25;;;;;;;32.28;5.45;;;6.70;99.90;;;;;;5048295;28;20068;-55
2021/04/03 07:07:54;;;;;;;46.22;7.97;;;6.60;99.90;;;;;;5049509;28;20474;-55
2021/04/03 07:10:20;;;;;;;34.00;5.72;;;6.50;99.90;;;;;;5044561;28;20499;-56
2021/04/03 07:12:46;;;;;;;29.98;6.03;;;6.50;99.90;;;;;;5045523;28;20060;-55
2021/04/03 07:15:13;;;;;;;32.53;6.55;;;6.50;99.90;;;;;;5049092;28;20024;-52
2021/04/03 07:17:44;;;;;;;30.63;5.75;;;6.50;99.90;;;;;;5048083;28;20025;-55
2021/04/03 07:20:14;;;;;;;38.05;7.97;;;6.50;99.90;;;;;;5047936;28;20033;-55
2021/04/03 07:22:46;;;;;;;43.08;8.25;;;6.50;99.90;;;;;;5050709;28;20119;-52
2021/04/03 07:25:12;;;;;;;24.88;7.13;;;6.50;99.90;;;;;;5049088;28;20057;-53
2021/04/03 07:27:40;;;;;;;38.28;7.43;;;6.60;99.90;;;;;;5047805;28;20071;-56
2021/04/03 07:30:07;;;;;;;28.88;7.47;;;6.70;99.90;;;;;;5049024;28;20489;-56
2021/04/03 07:32:33;;;;;;;31.70;8.32;;;6.70;99.90;;;;;;5049500;28;20391;-54
2021/04/03 07:35:12;;;;;;;38.92;9.40;;;6.80;99.90;;;;;;5045832;28;20553;-56
2021/04/03 07:37:37;;;;;;;32.13;7.75;;;6.90;99.90;;;;;;5049535;28;20029;-53
2021/04/03 07:40:04;;;;;;;32.83;7.95;;;7.00;99.90;;;;;;5052391;28;20371;-55
2021/04/03 07:42:34;;;;;;;30.45;7.28;;;7.00;99.90;;;;;;5051640;28;20037;-56
2021/04/03 07:45:00;;;;;;;32.60;6.45;;;7.10;99.90;;;;;;5049418;28;20029;-56
2021/04/03 07:47:26;;;;;;;30.17;7.50;;;7.20;99.90;;;;;;5053049;28;20029;-55
2021/04/03 07:49:53;;;;;;;43.17;7.10;;;7.20;99.90;;;;;;5052323;28;20077;-52
2021/04/03 07:52:51;;;;;;;27.73;6.75;;;7.30;99.90;;;;;;5050421;28;20036;-55
2021/04/03 07:55:32;;;;;;;31.15;6.00;;;7.30;99.90;;;;;;5049082;28;20029;-56
2021/04/03 07:58:19;;;;;;;22.58;5.65;;;7.40;99.90;;;;;;5052361;28;20025;-55
2021/04/03 08:00:48;;;;;;;24.60;6.60;;;7.40;99.90;;;;;;5047438;28;20045;-57
2021/04/03 08:03:18;;;;;;;29.48;6.97;;;7.50;99.90;;;;;;5050338;28;20087;-52
2021/04/03 08:05:44;;;;;;;32.42;5.57;;;7.60;99.90;;;;;;5047439;28;20135;-57
2021/04/03 08:08:10;;;;;;;27.40;5.53;;;7.60;99.90;;;;;;5052659;28;20115;-54
2021/04/03 08:10:36;;;;;;;25.92;4.60;;;7.60;99.90;;;;;;5051609;28;20108;-52
2021/04/03 08:13:02;;;;;;;20.33;5.07;;;7.60;99.90;;;;;;5048863;28;20112;-52
2021/04/03 08:15:29;;;;;;;32.60;6.82;;;7.70;99.90;;;;;;5049164;28;20017;-52
2021/04/03 08:17:55;;;;;;;34.70;4.60;;;7.70;99.90;;;;;;5051015;28;20040;-55
2021/04/03 08:20:25;;;;;;;26.65;5.50;;;7.70;99.90;;;;;;5050957;28;20013;-57
2021/04/03 08:23:06;;;;;;;18.85;5.30;;;7.70;99.90;;;;;;5048772;28;20032;-57
2021/04/03 08:25:33;;;;;;;17.65;4.43;;;7.80;99.90;;;;;;5028523;28;20549;-56
2021/04/03 08:28:02;;;;;;;23.48;4.55;;;7.70;99.90;;;;;;5046223;28;20495;-57
2021/04/03 08:30:32;;;;;;;24.48;3.83;;;7.90;99.90;;;;;;5045947;28;20486;-55
2021/04/03 08:33:09;;;;;;;23.35;5.53;;;7.90;99.90;;;;;;5047865;28;20040;-50
2021/04/03 08:35:37;;;;;;;18.85;3.90;;;8.00;99.90;;;;;;5042906;28;20071;-52
2021/04/03 08:38:11;;;;;;;20.65;4.63;;;8.10;99.90;;;;;;5034732;28;20025;-55
2021/04/03 08:40:37;;;;;;;27.95;4.55;;;8.10;99.90;;;;;;5046207;28;20044;-53
2021/04/03 08:43:03;;;;;;;21.58;5.28;;;8.20;99.90;;;;;;5044362;28;20112;-53
2021/04/03 08:45:40;;;;;;;24.70;4.78;;;8.30;99.90;;;;;;5050478;28;20503;-52
2021/04/03 08:48:10;;;;;;;26.10;5.18;;;8.40;99.90;;;;;;5046046;28;20063;-51
2021/04/03 08:50:40;;;;;;;19.98;4.95;;;8.40;99.90;;;;;;5050852;28;20064;-55
2021/04/03 08:53:06;;;;;;;19.90;4.30;;;8.50;99.90;;;;;;5051652;28;20021;-53
2021/04/03 08:55:32;;;;;;;28.67;4.43;;;8.50;99.90;;;;;;5032199;28;20544;-57
2021/04/03 08:57:59;;;;;;;31.02;6.70;;;8.50;99.90;;;;;;5050451;28;20041;-54
2021/04/03 09:00:25;;;;;;;36.17;5.93;;;8.40;99.90;;;;;;5053481;28;20028;-58
2021/04/03 09:02:52;;;;;;;41.58;7.63;;;8.50;99.90;;;;;;5056662;28;20021;-55
2021/04/03 09:05:18;;;;;;;29.00;5.20;;;8.50;99.90;;;;;;5052414;28;20028;-56
2021/04/03 09:07:44;;;;;;;27.88;5.22;;;8.50;99.90;;;;;;5050351;28;20059;-54
2021/04/03 09:10:18;;;;;;;24.23;5.15;;;8.50;99.90;;;;;;5054617;28;20056;-57
2021/04/03 09:12:45;;;;;;;27.70;7.18;;;8.50;99.90;;;;;;5046331;28;20020;-54
2021/04/03 09:15:12;;;;;;;26.88;6.75;;;8.60;99.90;;;;;;5051654;28;20029;-54
2021/04/03 09:17:51;;;;;;;24.48;7.13;;;8.50;99.90;;;;;;5050601;28;20032;-54
2021/04/03 09:20:23;;;;;;;27.10;7.28;;;8.50;99.90;;;;;;5049475;28;20401;-58
2021/04/03 09:22:52;;;;;;;26.88;7.18;;;8.60;99.90;;;;;;5044826;28;20025;-54
2021/04/03 09:25:20;;;;;;;38.22;8.82;;;8.80;99.90;;;;;;5049196;28;20036;-52
2021/04/03 09:28:03;;;;;;;33.00;9.48;;;8.90;99.90;;;;;;5053405;28;20070;-54
2021/04/03 09:30:40;;;;;;;44.22;9.45;;;8.90;99.90;;;;;;5055339;28;20486;-56
2021/04/03 09:33:26;;;;;;;34.20;7.85;;;9.00;99.90;;;;;;5049267;28;20035;-55
2021/04/03 09:35:53;;;;;;;18.52;6.63;;;8.90;99.90;;;;;;5052925;28;20362;-52
2021/04/03 09:38:30;;;;;;;32.92;7.93;;;8.90;99.90;;;;;;5052460;28;20071;-53
2021/04/03 09:40:55;;;;;;;25.20;7.88;;;9.30;99.90;;;;;;5050870;28;20071;-57
2021/04/03 09:43:39;;;;;;;29.70;8.05;;;9.60;99.90;;;;;;5050757;28;20068;-61
2021/04/03 09:46:04;;;;;;;30.02;8.05;;;9.80;99.90;;;;;;5048784;28;20033;-53
2021/04/03 09:48:30;;;;;;;34.30;8.40;;;10.00;99.90;;;;;;5049812;28;20067;-57
2021/04/03 09:50:57;;;;;;;26.92;7.72;;;10.20;99.90;;;;;;5051945;28;20588;-56
2021/04/03 09:53:28;;;;;;;31.77;8.43;;;10.30;99.90;;;;;;5055731;28;20430;-54
2021/04/03 09:55:54;;;;;;;33.72;8.40;;;10.40;99.90;;;;;;5052440;28;20033;-57
2021/04/03 09:58:19;;;;;;;30.52;8.55;;;10.50;99.90;;;;;;5048379;28;20025;-56
2021/04/03 10:00:45;;;;;;;31.40;8.82;;;10.50;99.90;;;;;;5049669;28;20065;-55
2021/04/03 10:03:11;;;;;;;29.98;9.55;;;10.60;99.90;;;;;;5054548;28;20363;-57
2021/04/03 10:05:36;;;;;;;36.58;8.13;;;10.80;99.90;;;;;;5049612;28;20028;-56
2021/04/03 10:08:02;;;;;;;32.03;8.57;;;10.60;99.90;;;;;;5047599;28;20103;-56
2021/04/03 10:10:27;;;;;;;28.08;8.93;;;10.40;99.90;;;;;;5045589;28;20043;-54
2021/04/03 10:12:53;;;;;;;31.08;9.05;;;10.40;99.90;;;;;;5052092;28;20025;-56
2021/04/03 10:15:21;;;;;;;27.85;8.10;;;10.50;99.90;;;;;;5030541;28;20043;-57
2021/04/03 10:17:47;;;;;;;30.40;8.85;;;10.60;99.90;;;;;;5050135;28;20142;-57
2021/04/03 10:20:13;;;;;;;26.48;9.75;;;10.80;99.90;;;;;;5047312;28;20546;-54
2021/04/03 10:22:38;;;;;;;33.88;9.10;;;11.00;99.90;;;;;;5050322;28;20029;-52
2021/04/03 10:25:04;;;;;;;26.48;8.13;;;11.20;99.90;;;;;;5048158;28;20067;-58
2021/04/03 10:27:30;;;;;;;28.17;8.25;;;11.60;99.90;;;;;;5051798;28;20529;-54
2021/04/03 10:29:55;;;;;;;26.65;8.05;;;11.70;99.90;;;;;;5047945;28;20029;-57
2021/04/03 10:32:21;;;;;;;26.05;8.63;;;11.80;99.90;;;;;;5031301;28;20078;-57
2021/04/03 10:34:46;;;;;;;30.90;9.52;;;11.90;99.90;;;;;;5050655;28;20032;-56
2021/04/03 10:37:12;;;;;;;26.80;9.07;;;12.10;99.90;;;;;;5050007;28;20037;-58
2021/04/03 10:39:38;;;;;;;24.65;8.23;;;11.80;99.90;;;;;;5044590;28;20025;-57
2021/04/03 10:42:04;;;;;;;30.92;9.52;;;11.80;99.90;;;;;;5048831;28;20028;-58
2021/04/03 10:44:29;;;;;;;35.25;8.60;;;11.90;99.90;;;;;;5042754;28;20025;-58
2021/04/03 10:46:55;;;;;;;30.55;9.43;;;12.20;99.90;;;;;;5048182;28;20037;-56
2021/04/03 10:49:22;;;;;;;32.38;10.02;;;12.40;99.90;;;;;;5047467;28;20078;-55
2021/04/03 10:51:48;;;;;;;29.50;8.70;;;12.40;99.90;;;;;;5052902;28;20483;-57
2021/04/03 10:54:14;;;;;;;26.40;9.52;;;12.60;99.90;;;;;;5050517;28;20037;-58
2021/04/03 10:56:39;;;;;;;26.08;8.98;;;12.90;99.90;;;;;;5054044;28;20108;-55
2021/04/03 10:59:05;;;;;;;27.90;10.00;;;13.30;99.90;;;;;;5048890;28;20105;-58
2021/04/03 11:01:30;;;;;;;31.42;10.75;;;13.30;99.90;;;;;;5047837;28;20060;-57
2021/04/03 11:03:56;;;;;;;26.17;9.68;;;13.40;99.90;;;;;;5046381;28;20033;-57
2021/04/03 11:06:21;;;;;;;29.70;9.70;;;13.60;99.90;;;;;;5051869;28;20025;-57
2021/04/03 11:08:47;;;;;;;32.50;9.82;;;13.30;99.90;;;;;;5054986;28;20101;-54
2021/04/03 11:11:13;;;;;;;32.60;9.77;;;13.40;99.90;;;;;;5051936;28;20037;-54
2021/04/03 11:13:38;;;;;;;29.17;9.05;;;13.20;99.90;;;;;;5053902;28;20021;-54
2021/04/03 11:16:04;;;;;;;25.73;8.85;;;13.00;99.90;;;;;;5054491;28;20033;-56
2021/04/03 11:18:30;;;;;;;23.98;8.48;;;12.70;99.90;;;;;;5054352;28;20045;-54
2021/04/03 11:20:55;;;;;;;25.90;8.18;;;12.40;99.90;;;;;;5051980;28;20037;-57
2021/04/03 11:23:21;;;;;;;26.13;10.13;;;12.30;99.90;;;;;;5054758;28;20025;-56
2021/04/03 11:25:47;;;;;;;22.70;7.82;;;12.90;99.90;;;;;;5052646;28;20394;-56
2021/04/03 11:28:12;;;;;;;26.17;9.43;;;13.20;99.90;;;;;;5052094;28;20037;-54
2021/04/03 11:30:38;;;;;;;30.75;9.30;;;13.40;99.90;;;;;;5056896;28;20036;-52
2021/04/03 11:33:04;;;;;;;26.42;9.50;;;12.90;99.90;;;;;;5037532;28;21113;-52
2021/04/03 11:35:31;;;;;;;26.40;9.82;;;12.70;99.90;;;;;;5053056;28;20032;-56
2021/04/03 11:37:56;;;;;;;23.17;9.15;;;12.60;99.90;;;;;;5051428;28;20568;-54
2021/04/03 11:40:22;;;;;;;25.85;9.73;;;12.70;99.90;;;;;;5050622;28;20060;-52
2021/04/03 11:42:52;;;;;;;17.10;8.20;;;12.60;99.90;;;;;;5051718;28;20056;-56
2021/04/03 11:45:19;;;;;;;29.05;9.10;;;12.30;99.90;;;;;;5051262;28;20486;-58
2021/04/03 11:47:44;;;;;;;25.90;9.40;;;12.30;99.90;;;;;;5053480;28;20039;-55
2021/04/03 11:50:10;;;;;;;25.02;8.77;;;12.50;99.90;;;;;;5049577;28;20028;-56
2021/04/03 11:52:37;;;;;;;20.85;8.75;;;12.80;99.90;;;;;;5049641;28;20025;-52
2021/04/03 11:55:05;;;;;;;17.98;7.88;;;12.90;99.90;;;;;;5048655;28;20140;-54
2021/04/03 11:57:32;;;;;;;19.33;8.20;;;13.20;99.90;;;;;;5050941;28;20037;-52
2021/04/03 11:59:57;;;;;;;19.48;7.65;;;13.40;99.90;;;;;;5050324;28;20040;-52
2021/04/03 12:02:23;;;;;;;23.00;8.48;;;13.40;99.90;;;;;;5051093;28;20041;-56
2021/04/03 12:04:49;;;;;;;22.08;9.68;;;13.30;99.90;;;;;;5050200;28;20430;-56
2021/04/03 12:07:14;;;;;;;21.42;9.25;;;13.30;99.90;;;;;;5048771;28;20052;-56
2021/04/03 12:09:40;;;;;;;25.75;9.63;;;13.00;99.90;;;;;;5047063;28;20025;-55
2021/04/03 12:12:07;;;;;;;29.10;9.82;;;12.60;99.90;;;;;;5046721;28;20025;-55
2021/04/03 12:14:33;;;;;;;24.95;9.70;;;12.40;99.90;;;;;;5051636;28;20029;-54
2021/04/03 12:16:58;;;;;;;23.55;9.43;;;12.40;99.90;;;;;;5046349;28;20029;-52
2021/04/03 12:19:24;;;;;;;22.30;9.48;;;12.40;99.90;;;;;;5049871;28;20422;-54
2021/04/03 12:21:49;;;;;;;25.48;10.10;;;12.50;99.90;;;;;;5049908;28;20033;-54
2021/04/03 12:24:15;;;;;;;29.25;11.70;;;12.70;99.90;;;;;;5052318;28;20048;-52
2021/04/03 12:26:40;;;;;;;26.77;11.85;;;12.80;99.90;;;;;;5045787;28;20033;-51
2021/04/03 12:29:06;;;;;;;22.67;10.60;;;13.10;99.90;;;;;;5047119;28;20364;-55
2021/04/03 12:31:31;;;;;;;28.60;12.60;;;13.50;99.90;;;;;;5048550;28;20025;-54
2021/04/03 12:33:57;;;;;;;22.58;10.20;;;13.80;99.90;;;;;;5052143;28;20774;-52
2021/04/03 12:36:23;;;;;;;27.17;11.48;;;13.90;99.90;;;;;;5052102;28;20032;-55
2021/04/03 12:38:49;;;;;;;25.92;10.57;;;13.60;99.90;;;;;;5051067;28;20040;-54
2021/04/03 12:41:14;;;;;;;24.63;12.50;;;13.30;99.90;;;;;;5046415;28;20057;-55
2021/04/03 12:43:40;;;;;;;29.17;12.60;;;13.40;99.90;;;;;;5047114;28;20502;-56
2021/04/03 12:46:06;;;;;;;32.58;12.15;;;13.40;99.90;;;;;;5050924;28;20036;-57
2021/04/03 12:48:32;;;;;;;25.48;13.15;;;13.30;99.90;;;;;;5048613;28;20029;-55